createdAt,value
2023-05-09T00:02:01.343Z,12.43
2023-05-09T00:04:28.167Z,10.95
2023-05-09T00:06:54.618Z,10.45
2023-05-09T00:09:21.058Z,10.50
2023-05-09T00:11:47.485Z,10.33
2023-05-09T00:14:14.039Z,11.25
2023-05-09T00:16:40.845Z,10.65
2023-05-09T00:19:07.552Z,10.02
2023-05-09T00:21:34.272Z,10.18
2023-05-09T00:24:01.177Z,9.60
2023-05-09T00:26:27.887Z,10.52
2023-05-09T00:28:54.321Z,11.27
2023-05-09T00:31:21.019Z,10.88
2023-05-09T00:33:47.489Z,10.50
2023-05-09T00:36:13.867Z,10.23
2023-05-09T00:38:40.350Z,11.30
2023-05-09T00:41:06.843Z,10.95
2023-05-09T00:43:33.332Z,10.40
2023-05-09T00:45:59.793Z,10.90
2023-05-09T00:48:26.290Z,10.33
2023-05-09T00:50:53.277Z,11.15
2023-05-09T00:53:20.758Z,12.25
2023-05-09T00:55:47.303Z,11.82
2023-05-09T00:58:13.751Z,10.73
2023-05-09T01:00:40.918Z,10.90
2023-05-09T01:03:08.014Z,10.30
2023-05-09T01:05:41.055Z,10.90
2023-05-09T01:08:08.910Z,10.85
2023-05-09T01:10:41.293Z,10.13
2023-05-09T01:13:27.593Z,11.10
2023-05-09T01:15:56.104Z,10.88
2023-05-09T01:18:25.723Z,12.32
2023-05-09T01:20:57.620Z,11.90
2023-05-09T01:23:44.229Z,10.90
2023-05-09T01:26:29.601Z,10.43
2023-05-09T01:29:16.467Z,10.25
2023-05-09T01:31:44.488Z,10.88
2023-05-09T01:34:11.742Z,10.25
2023-05-09T01:36:39.645Z,10.88
2023-05-09T01:39:06.588Z,10.77
2023-05-09T01:41:36.560Z,10.75
2023-05-09T01:44:05.133Z,11.50
2023-05-09T01:46:32.279Z,10.35
2023-05-09T01:49:00.125Z,11.07
2023-05-09T01:51:27.357Z,10.30
2023-05-09T01:53:54.375Z,10.27
2023-05-09T01:56:21.931Z,11.55
2023-05-09T01:58:50.111Z,10.75
2023-05-09T02:01:16.984Z,11.55
2023-05-09T02:03:45.412Z,10.40
2023-05-09T02:06:12.610Z,11.20
2023-05-09T02:08:39.354Z,10.70
2023-05-09T02:11:05.984Z,11.20
2023-05-09T02:13:32.443Z,12.07
2023-05-09T02:15:59.514Z,10.50
2023-05-09T02:18:26.154Z,10.50
2023-05-09T02:20:52.751Z,10.75
2023-05-09T02:23:19.926Z,10.82
2023-05-09T02:25:46.567Z,11.23
2023-05-09T02:28:13.630Z,11.33
2023-05-09T02:30:42.222Z,11.20
2023-05-09T02:33:10.099Z,11.50
2023-05-09T02:35:37.290Z,10.55
2023-05-09T02:38:04.002Z,11.55
2023-05-09T02:40:31.068Z,10.00
2023-05-09T02:42:57.741Z,10.98
2023-05-09T02:45:24.289Z,12.43
2023-05-09T02:47:50.848Z,11.20
2023-05-09T02:50:17.507Z,11.85
2023-05-09T02:52:44.410Z,10.57
2023-05-09T02:55:11.604Z,11.75
2023-05-09T02:57:38.114Z,11.18
2023-05-09T03:00:09.215Z,10.38
2023-05-09T03:02:36.251Z,11.60
2023-05-09T03:05:03.282Z,11.73
2023-05-09T03:07:30.075Z,10.82
2023-05-09T03:09:56.655Z,12.63
2023-05-09T03:12:24.205Z,10.90
2023-05-09T03:14:50.680Z,11.95
2023-05-09T03:17:21.186Z,11.13
2023-05-09T03:19:48.831Z,11.07
2023-05-09T03:22:15.742Z,10.77
2023-05-09T03:24:42.356Z,10.77
2023-05-09T03:27:08.817Z,10.88
2023-05-09T03:29:35.269Z,12.73
2023-05-09T03:32:01.756Z,11.25
2023-05-09T03:34:28.143Z,14.90
2023-05-09T03:36:54.597Z,10.93
2023-05-09T03:39:21.075Z,11.65
2023-05-09T03:41:47.930Z,12.37
2023-05-09T03:44:14.394Z,14.52
2023-05-09T03:46:41.229Z,10.98
2023-05-09T03:49:07.744Z,11.32
2023-05-09T03:51:34.185Z,11.07
2023-05-09T03:54:00.798Z,11.50
2023-05-09T03:56:27.427Z,11.07
2023-05-09T03:58:54.003Z,10.55
2023-05-09T04:01:20.776Z,10.68
2023-05-09T04:03:47.461Z,9.98
2023-05-09T04:06:13.912Z,10.73
2023-05-09T04:08:40.656Z,10.32
2023-05-09T04:11:07.512Z,10.63
2023-05-09T04:13:34.011Z,10.45
2023-05-09T04:16:01.498Z,10.18
2023-05-09T04:18:28.054Z,10.07
2023-05-09T04:20:54.671Z,9.77
2023-05-09T04:23:21.067Z,10.82
2023-05-09T04:25:47.714Z,8.98
2023-05-09T04:28:14.290Z,9.77
2023-05-09T04:30:40.848Z,10.10
2023-05-09T04:33:07.368Z,9.30
2023-05-09T04:35:33.766Z,9.35
2023-05-09T04:38:00.728Z,9.85
2023-05-09T04:40:28.576Z,10.23
2023-05-09T04:42:55.101Z,10.37
2023-05-09T04:45:21.960Z,10.82
2023-05-09T04:47:48.444Z,9.98
2023-05-09T04:50:15.077Z,9.68
2023-05-09T04:52:41.921Z,9.48
2023-05-09T04:55:08.737Z,15.87
2023-05-09T04:57:35.213Z,10.50
2023-05-09T05:00:01.870Z,9.93
2023-05-09T05:02:28.408Z,13.65
2023-05-09T05:05:06.165Z,11.98
2023-05-09T05:07:33.069Z,9.30
2023-05-09T05:09:59.693Z,10.57
2023-05-09T05:12:26.182Z,11.10
2023-05-09T05:14:53.077Z,10.02
2023-05-09T05:17:19.524Z,10.70
2023-05-09T05:19:46.029Z,11.23
2023-05-09T05:22:12.670Z,10.70
2023-05-09T05:24:39.325Z,9.35
2023-05-09T05:27:05.789Z,9.95
2023-05-09T05:29:32.380Z,11.25
2023-05-09T05:31:58.976Z,10.67
2023-05-09T05:34:25.678Z,10.65
2023-05-09T05:36:52.231Z,11.18
2023-05-09T05:39:18.746Z,11.70
2023-05-09T05:41:45.332Z,12.15
2023-05-09T05:44:12.264Z,12.07
2023-05-09T05:46:38.812Z,11.50
2023-05-09T05:49:05.313Z,12.60
2023-05-09T05:51:32.139Z,11.05
2023-05-09T05:53:58.653Z,11.38
2023-05-09T05:56:26.268Z,10.67
2023-05-09T05:58:52.819Z,12.05
2023-05-09T06:01:19.289Z,12.05
2023-05-09T06:03:45.852Z,11.50
2023-05-09T06:06:12.731Z,11.18
2023-05-09T06:08:39.254Z,9.73
2023-05-09T06:11:06.044Z,10.70
2023-05-09T06:13:32.634Z,12.43
2023-05-09T06:16:07.848Z,11.63
2023-05-09T06:18:42.348Z,11.73
2023-05-09T06:21:09.186Z,12.33
2023-05-09T06:23:38.044Z,11.20
2023-05-09T06:26:07.067Z,11.77
2023-05-09T06:28:33.971Z,12.23
2023-05-09T06:31:01.696Z,12.93
2023-05-09T06:33:28.336Z,12.33
2023-05-09T06:35:54.973Z,11.10
2023-05-09T06:38:21.524Z,12.52
2023-05-09T06:40:48.055Z,11.70
2023-05-09T06:43:14.815Z,14.05
2023-05-09T06:45:41.547Z,12.87
2023-05-09T06:48:08.112Z,12.93
2023-05-09T06:50:34.680Z,15.10
2023-05-09T06:53:01.184Z,12.43
2023-05-09T06:55:29.096Z,15.23
2023-05-09T06:57:55.994Z,12.77
2023-05-09T07:00:22.785Z,13.05
2023-05-09T07:02:49.273Z,14.38
2023-05-09T07:05:16.533Z,12.82
2023-05-09T07:07:43.625Z,13.18
2023-05-09T07:10:11.962Z,12.03
2023-05-09T07:12:39.348Z,11.70
2023-05-09T07:15:06.547Z,12.15
2023-05-09T07:17:33.506Z,15.27
2023-05-09T07:20:00.110Z,12.50
2023-05-09T07:22:27.765Z,12.13
2023-05-09T07:24:55.369Z,11.63
2023-05-09T07:27:22.081Z,12.23
2023-05-09T07:29:51.731Z,10.48
2023-05-09T07:32:21.692Z,11.40
2023-05-09T07:34:48.315Z,9.70
2023-05-09T07:37:16.348Z,8.57
2023-05-09T07:39:43.448Z,10.93
2023-05-09T07:42:10.501Z,7.50
2023-05-09T07:44:36.984Z,9.40
2023-05-09T07:47:05.482Z,7.90
2023-05-09T07:49:32.677Z,9.18
2023-05-09T07:51:59.341Z,9.43
2023-05-09T07:54:25.845Z,10.77
2023-05-09T07:56:52.597Z,9.35
2023-05-09T07:59:19.520Z,7.33
2023-05-09T08:01:46.284Z,8.05
2023-05-09T08:04:13.224Z,8.88
2023-05-09T08:06:39.858Z,9.52
2023-05-09T08:09:06.591Z,8.38
2023-05-09T08:11:34.054Z,15.90
2023-05-09T08:14:00.884Z,20.80
2023-05-09T08:16:27.489Z,9.57
2023-05-09T08:18:54.991Z,10.88
2023-05-09T08:21:22.327Z,9.70
2023-05-09T08:23:48.939Z,8.40
2023-05-09T08:26:15.509Z,10.30
2023-05-09T08:28:42.525Z,10.25
2023-05-09T08:31:09.572Z,12.10
2023-05-09T08:33:36.346Z,9.70
2023-05-09T08:36:03.236Z,10.07
2023-05-09T08:38:32.397Z,12.05
2023-05-09T08:41:02.191Z,11.57
2023-05-09T08:43:29.199Z,15.63
2023-05-09T08:45:58.425Z,13.18
2023-05-09T08:48:25.924Z,12.03
2023-05-09T08:50:53.084Z,14.15
2023-05-09T08:53:21.566Z,14.00
2023-05-09T08:55:48.928Z,13.40
2023-05-09T08:58:16.951Z,11.32
2023-05-09T09:00:43.895Z,10.03
2023-05-09T09:03:10.731Z,13.57
2023-05-09T09:05:42.141Z,15.05
2023-05-09T09:08:09.825Z,12.60
2023-05-09T09:10:39.552Z,12.13
2023-05-09T09:13:06.460Z,13.50
2023-05-09T09:15:37.701Z,11.48
2023-05-09T09:18:10.190Z,12.18
2023-05-09T09:20:48.255Z,11.57
2023-05-09T09:23:17.286Z,11.95
2023-05-09T09:25:45.766Z,12.37
2023-05-09T09:28:12.897Z,11.73
2023-05-09T09:30:47.808Z,12.32
2023-05-09T09:33:21.610Z,11.25
2023-05-09T09:35:48.922Z,14.18
2023-05-09T09:38:15.769Z,10.43
2023-05-09T09:40:48.954Z,22.90
2023-05-09T09:43:15.662Z,16.58
2023-05-09T09:45:42.502Z,11.65
2023-05-09T09:48:09.142Z,11.38
2023-05-09T09:50:35.973Z,10.80
2023-05-09T09:53:03.562Z,11.80
2023-05-09T09:55:30.038Z,12.43
2023-05-09T09:57:56.918Z,11.50
2023-05-09T10:00:30.528Z,13.68
2023-05-09T10:02:58.278Z,11.63
2023-05-09T10:05:26.224Z,10.82
2023-05-09T10:07:59.922Z,11.30
2023-05-09T10:10:27.786Z,11.50
2023-05-09T10:12:56.908Z,12.13
2023-05-09T10:15:24.115Z,12.17
2023-05-09T10:17:57.721Z,11.85
2023-05-09T10:20:25.636Z,12.50
2023-05-09T10:22:57.070Z,12.80
2023-05-09T10:25:41.150Z,13.00
2023-05-09T10:28:12.373Z,13.83
2023-05-09T10:30:56.560Z,11.93
2023-05-09T10:33:26.903Z,11.70
2023-05-09T10:35:54.506Z,12.75
2023-05-09T10:38:21.579Z,10.98
2023-05-09T10:40:48.302Z,14.87
2023-05-09T10:43:14.782Z,13.20
2023-05-09T10:45:42.074Z,12.45
2023-05-09T10:48:09.305Z,12.32
2023-05-09T10:50:37.526Z,12.77
2023-05-09T10:53:04.083Z,11.27
2023-05-09T10:55:54.098Z,14.27
2023-05-09T10:58:20.641Z,11.40
2023-05-09T11:00:50.747Z,11.98
2023-05-09T11:03:20.636Z,12.27
2023-05-09T11:05:48.069Z,15.27
2023-05-09T11:08:23.138Z,12.30
2023-05-09T11:10:49.872Z,12.20
2023-05-09T11:13:24.466Z,10.13
2023-05-09T11:15:54.096Z,12.00
2023-05-09T11:18:21.278Z,11.40
2023-05-09T11:20:49.401Z,10.40
2023-05-09T11:23:17.641Z,11.52
2023-05-09T11:25:46.501Z,11.45
2023-05-09T11:28:25.505Z,11.98
2023-05-09T11:30:53.908Z,12.23
2023-05-09T11:33:23.123Z,10.75
2023-05-09T11:36:09.620Z,10.93
2023-05-09T11:38:43.271Z,11.27
2023-05-09T11:41:09.763Z,10.68
2023-05-09T11:43:37.234Z,10.60
2023-05-09T11:46:04.207Z,10.98
2023-05-09T11:48:31.115Z,9.95
2023-05-09T11:51:01.941Z,15.13
2023-05-09T11:53:28.403Z,9.77
2023-05-09T11:55:56.077Z,9.03
2023-05-09T11:58:22.645Z,11.57
2023-05-09T12:00:49.149Z,12.70
2023-05-09T12:03:16.975Z,10.25
2023-05-09T12:05:48.733Z,11.05
2023-05-09T12:08:16.326Z,11.30
2023-05-09T12:10:43.198Z,11.45
2023-05-09T12:13:10.422Z,14.95
2023-05-09T12:15:40.127Z,20.58
2023-05-09T12:18:08.615Z,9.57
2023-05-09T12:20:42.607Z,8.40
2023-05-09T12:23:10.154Z,7.90
2023-05-09T12:25:36.989Z,15.75
2023-05-09T12:28:03.756Z,8.23
2023-05-09T12:30:31.590Z,10.07
2023-05-09T12:32:59.685Z,11.40
2023-05-09T12:35:26.421Z,11.63
2023-05-09T12:37:57.913Z,8.30
2023-05-09T12:40:24.745Z,8.20
2023-05-09T12:42:54.376Z,8.00
2023-05-09T12:45:21.098Z,8.30
2023-05-09T12:47:51.422Z,9.00
2023-05-09T12:50:17.913Z,8.93
2023-05-09T12:52:54.599Z,8.93
2023-05-09T12:55:28.548Z,18.48
2023-05-09T12:58:02.416Z,8.73
2023-05-09T13:00:29.356Z,7.93
2023-05-09T13:02:56.252Z,9.43
2023-05-09T13:05:23.629Z,8.38
2023-05-09T13:07:52.325Z,8.30
2023-05-09T13:10:27.584Z,11.93
2023-05-09T13:12:54.141Z,7.82
2023-05-09T13:15:21.774Z,8.68
2023-05-09T13:17:51.666Z,9.30
2023-05-09T13:20:19.056Z,7.82
2023-05-09T13:22:46.347Z,8.63
2023-05-09T13:25:13.066Z,9.05
2023-05-09T13:27:39.944Z,8.32
2023-05-09T13:30:09.374Z,9.13
2023-05-09T13:32:36.800Z,8.90
2023-05-09T13:35:04.657Z,10.00
2023-05-09T13:37:31.397Z,9.82
2023-05-09T13:39:57.887Z,10.60
2023-05-09T13:42:24.374Z,9.25
2023-05-09T13:44:50.924Z,9.45
2023-05-09T13:47:17.348Z,9.70
2023-05-09T13:49:44.158Z,8.60
2023-05-09T13:52:10.792Z,8.55
2023-05-09T13:54:37.665Z,10.13
2023-05-09T13:57:04.819Z,12.30
2023-05-09T13:59:31.601Z,9.40
2023-05-09T14:01:59.915Z,9.05
2023-05-09T14:04:27.095Z,10.23
2023-05-09T14:07:42.332Z,9.90
2023-05-09T14:10:11.914Z,12.23
2023-05-09T14:12:39.879Z,10.33
2023-05-09T14:15:07.745Z,10.43
2023-05-09T14:17:34.639Z,10.45
2023-05-09T14:20:01.240Z,9.35
2023-05-09T14:22:28.287Z,10.98
2023-05-09T14:24:56.644Z,9.87
2023-05-09T14:27:23.441Z,8.88
2023-05-09T14:29:50.222Z,10.68
2023-05-09T14:32:17.464Z,9.23
2023-05-09T14:34:44.545Z,12.77
2023-05-09T14:37:16.110Z,10.80
2023-05-09T14:39:43.833Z,11.40
2023-05-09T14:42:11.715Z,11.15
2023-05-09T14:44:39.079Z,10.85
2023-05-09T14:47:05.936Z,10.15
2023-05-09T14:49:32.774Z,12.23
2023-05-09T14:51:59.663Z,11.75
2023-05-09T14:54:26.224Z,11.57
2023-05-09T14:56:53.040Z,11.82
2023-05-09T14:59:19.699Z,9.43
2023-05-09T15:01:47.642Z,9.17
2023-05-09T15:04:14.429Z,10.73
2023-05-09T15:06:41.477Z,11.77
2023-05-09T15:09:08.546Z,8.35
2023-05-09T15:11:46.833Z,10.05
2023-05-09T15:14:16.706Z,7.63
2023-05-09T15:16:43.825Z,8.32
2023-05-09T15:19:10.769Z,9.43
2023-05-09T15:21:37.522Z,7.63
2023-05-09T15:24:04.735Z,6.72
2023-05-09T15:26:31.369Z,7.37
2023-05-09T15:28:59.081Z,7.57
2023-05-09T15:31:26.836Z,6.63
2023-05-09T15:33:53.781Z,6.28
2023-05-09T15:36:20.670Z,6.10
2023-05-09T15:38:49.738Z,7.67
2023-05-09T15:41:16.529Z,6.60
2023-05-09T15:43:43.623Z,9.10
2023-05-09T15:46:10.205Z,6.70
2023-05-09T15:48:36.855Z,8.55
2023-05-09T15:51:04.241Z,5.73
2023-05-09T15:53:30.945Z,7.00
2023-05-09T15:55:57.441Z,7.25
2023-05-09T15:58:24.190Z,7.15
2023-05-09T16:00:51.116Z,6.65
2023-05-09T16:03:17.948Z,6.33
2023-05-09T16:05:45.091Z,8.15
2023-05-09T16:08:12.159Z,7.60
2023-05-09T16:10:38.774Z,7.43
2023-05-09T16:13:05.381Z,7.43
2023-05-09T16:15:32.282Z,7.23
2023-05-09T16:18:01.523Z,7.25
2023-05-09T16:20:28.110Z,9.48
2023-05-09T16:22:54.639Z,6.28
2023-05-09T16:25:21.144Z,8.60
2023-05-09T16:27:47.738Z,7.93
2023-05-09T16:30:14.852Z,7.28
2023-05-09T16:32:41.480Z,7.60
2023-05-09T16:35:08.258Z,7.22
2023-05-09T16:37:35.670Z,7.22
2023-05-09T16:40:02.923Z,6.80
2023-05-09T16:42:29.506Z,8.75
2023-05-09T16:44:56.095Z,6.95
2023-05-09T16:47:22.665Z,6.97
2023-05-09T16:49:49.324Z,8.07
2023-05-09T16:52:15.877Z,6.33
2023-05-09T16:54:42.432Z,8.82
2023-05-09T16:57:08.966Z,7.22
2023-05-09T16:59:35.632Z,6.57
2023-05-09T17:02:02.281Z,7.43
2023-05-09T17:04:29.500Z,8.53
2023-05-09T17:06:56.364Z,4.75
2023-05-09T17:09:23.046Z,11.27
2023-05-09T17:11:49.758Z,5.97
2023-05-09T17:14:16.322Z,5.03
2023-05-09T17:16:43.060Z,5.90
2023-05-09T17:19:09.597Z,6.25
2023-05-09T17:21:38.475Z,7.60
2023-05-09T17:24:05.686Z,8.52
2023-05-09T17:26:32.354Z,5.50
2023-05-09T17:28:59.478Z,6.50
2023-05-09T17:31:26.623Z,6.18
2023-05-09T17:33:53.618Z,6.68
2023-05-09T17:36:20.071Z,6.03
2023-05-09T17:38:46.611Z,6.10
2023-05-09T17:41:13.141Z,6.03
2023-05-09T17:43:39.698Z,5.57
2023-05-09T17:46:06.457Z,5.80
2023-05-09T17:48:33.048Z,5.45
2023-05-09T17:50:59.714Z,7.50
2023-05-09T17:53:26.628Z,5.40
2023-05-09T17:55:53.035Z,10.38
2023-05-09T17:58:21.028Z,5.53
2023-05-09T18:00:47.565Z,6.05
2023-05-09T18:03:14.212Z,8.73
2023-05-09T18:05:40.768Z,5.73
2023-05-09T18:08:07.450Z,6.60
2023-05-09T18:10:34.304Z,6.80
2023-05-09T18:13:00.916Z,7.47
2023-05-09T18:15:27.539Z,6.80
2023-05-09T18:17:54.913Z,7.13
2023-05-09T18:20:22.111Z,6.45
2023-05-09T18:22:48.806Z,6.97
2023-05-09T18:25:16.194Z,6.35
2023-05-09T18:27:42.955Z,6.53
2023-05-09T18:30:09.704Z,7.23
2023-05-09T18:32:36.648Z,7.03
2023-05-09T18:35:04.317Z,8.40
2023-05-09T18:37:30.967Z,8.70
2023-05-09T18:39:57.738Z,7.88
2023-05-09T18:42:24.504Z,6.93
2023-05-09T18:44:52.491Z,7.47
2023-05-09T18:47:19.178Z,7.20
2023-05-09T18:49:46.454Z,9.00
2023-05-09T18:52:13.165Z,7.85
2023-05-09T18:54:41.184Z,7.13
2023-05-09T18:57:08.904Z,8.50
2023-05-09T18:59:35.901Z,8.98
2023-05-09T19:02:02.528Z,8.93
2023-05-09T19:04:29.415Z,9.50
2023-05-09T19:06:56.142Z,9.77
2023-05-09T19:09:22.981Z,10.10
2023-05-09T19:11:49.679Z,9.73
2023-05-09T19:14:16.311Z,8.80
2023-05-09T19:16:42.890Z,9.85
2023-05-09T19:19:09.838Z,8.63
2023-05-09T19:21:36.885Z,8.43
2023-05-09T19:24:04.838Z,9.57
2023-05-09T19:26:31.819Z,10.55
2023-05-09T19:29:01.330Z,10.15
2023-05-09T19:31:28.802Z,9.77
2023-05-09T19:33:55.467Z,10.00
2023-05-09T19:36:21.994Z,10.48
2023-05-09T19:38:48.459Z,10.13
2023-05-09T19:41:15.784Z,10.32
2023-05-09T19:43:42.257Z,11.17
2023-05-09T19:46:09.342Z,11.23
2023-05-09T19:48:35.938Z,11.25
2023-05-09T19:51:02.661Z,12.00
2023-05-09T19:53:29.116Z,10.07
2023-05-09T19:55:55.670Z,12.30
2023-05-09T19:58:23.466Z,11.70
2023-05-09T20:00:50.003Z,13.10
2023-05-09T20:03:16.720Z,11.60
2023-05-09T20:05:43.613Z,13.88
2023-05-09T20:08:10.132Z,11.77
2023-05-09T20:10:36.652Z,12.85
2023-05-09T20:13:04.574Z,12.05
2023-05-09T20:15:31.469Z,12.63
2023-05-09T20:17:58.661Z,13.73
2023-05-09T20:20:25.269Z,18.27
2023-05-09T20:22:51.940Z,18.10
2023-05-09T20:25:18.934Z,13.75
2023-05-09T20:27:45.617Z,16.35
2023-05-09T20:30:12.411Z,17.67
2023-05-09T20:32:38.960Z,15.43
2023-05-09T20:35:05.812Z,15.52
2023-05-09T20:37:32.425Z,15.82
2023-05-09T20:39:58.982Z,14.48
2023-05-09T20:42:25.796Z,15.77
2023-05-09T20:44:52.860Z,15.53
2023-05-09T20:47:19.299Z,15.82
2023-05-09T20:49:46.080Z,15.02
2023-05-09T20:52:12.694Z,15.65
2023-05-09T20:54:39.221Z,16.58
2023-05-09T20:57:06.154Z,16.03
2023-05-09T20:59:32.882Z,17.13
2023-05-09T21:01:59.654Z,17.45
2023-05-09T21:04:26.215Z,18.67
2023-05-09T21:06:52.899Z,17.15
2023-05-09T21:09:19.437Z,16.87
2023-05-09T21:11:46.302Z,17.75
2023-05-09T21:14:12.847Z,18.20
2023-05-09T21:16:39.547Z,16.70
2023-05-09T21:19:06.681Z,18.13
2023-05-09T21:21:33.247Z,17.37
2023-05-09T21:24:04.378Z,17.88
2023-05-09T21:26:32.183Z,17.52
2023-05-09T21:28:58.755Z,15.63
2023-05-09T21:31:25.333Z,17.85
2023-05-09T21:33:53.047Z,17.33
2023-05-09T21:36:19.614Z,17.77
2023-05-09T21:38:47.420Z,17.48
2023-05-09T21:41:14.606Z,18.17
2023-05-09T21:43:41.371Z,20.60
2023-05-09T21:46:08.118Z,17.63
2023-05-09T21:48:34.750Z,18.50
2023-05-09T21:51:02.633Z,19.92
2023-05-09T21:53:29.565Z,20.20
2023-05-09T21:55:56.128Z,17.75
2023-05-09T21:58:22.698Z,19.57
2023-05-09T22:00:49.138Z,18.77
2023-05-09T22:03:15.937Z,18.60
2023-05-09T22:05:42.654Z,21.23
2023-05-09T22:08:09.507Z,18.42
2023-05-09T22:10:37.831Z,20.27
2023-05-09T22:13:05.213Z,16.73
2023-05-09T22:15:36.014Z,17.10
2023-05-09T22:18:02.948Z,15.88
2023-05-09T22:20:29.579Z,15.90
2023-05-09T22:22:56.425Z,15.50
2023-05-09T22:25:23.048Z,17.55
2023-05-09T22:27:49.664Z,18.55
2023-05-09T22:30:17.929Z,14.85
2023-05-09T22:32:44.628Z,20.83
2023-05-09T22:35:11.521Z,17.80
2023-05-09T22:37:38.061Z,15.30
2023-05-09T22:40:07.784Z,15.32
2023-05-09T22:42:35.062Z,13.48
2023-05-09T22:45:01.718Z,16.02
2023-05-09T22:47:28.372Z,13.30
2023-05-09T22:49:54.848Z,16.25
2023-05-09T22:52:21.511Z,16.77
2023-05-09T22:54:48.213Z,13.88
2023-05-09T22:57:17.794Z,15.48
2023-05-09T22:59:44.460Z,15.07
2023-05-09T23:02:11.039Z,14.02
2023-05-09T23:04:37.544Z,12.30
2023-05-09T23:07:04.008Z,12.98
2023-05-09T23:09:30.847Z,13.48
2023-05-09T23:11:57.691Z,13.80
2023-05-09T23:14:24.280Z,12.85
2023-05-09T23:16:51.132Z,13.40
2023-05-09T23:19:17.830Z,12.02
2023-05-09T23:21:44.349Z,14.07
2023-05-09T23:24:10.767Z,12.17
2023-05-09T23:26:37.373Z,12.85
2023-05-09T23:29:03.912Z,12.70
2023-05-09T23:31:30.571Z,13.52
2023-05-09T23:33:57.020Z,11.95
2023-05-09T23:36:23.481Z,13.00
2023-05-09T23:38:50.074Z,11.98
2023-05-09T23:41:16.940Z,11.55
2023-05-09T23:43:43.427Z,12.73
2023-05-09T23:46:10.109Z,12.73
2023-05-09T23:48:36.865Z,11.97
2023-05-09T23:51:04.895Z,12.68
2023-05-09T23:53:35.138Z,12.75
2023-05-09T23:56:02.329Z,12.90
2023-05-09T23:58:29.162Z,13.85
